EGEO

Oban Airport

North Connel, United Kingdom
METAR EGEO 251550Z 17012KT 4000 -DZ FEW006 BKN018 OVC026 11/10 Q1024
Observed Flight Rules
Sep-25 @ 15:50 UTC (4 hours ago) Instrument Flight Rules
Wind Visibility Clouds Conditions
170° at 12 knots 4,007 meters
  • Few at 600' AGL
  • Broken at 1,800' AGL
  • Overcast at 2,600' AGL
  • Light Drizzle
Temperatures Readings
Current 11°C / 52°F
Dewpoint 10°C / 50°F
Humidity 94%
Altimeter 30.24" Hg
Pressure 1024 hPa
Elevation 6
METAR EGEO 251550Z 17012KT 4000 -DZ FEW006 BKN018 OVC026 11/10 Q1024
Observed Flight Rules
Sep-25 @ 15:50 UTC
(4 hours ago)
IFR
Wind Visibility
170° at 12 knots 4,007 meters
Clouds
  • Few at 600' AGL
  • Broken at 1,800' AGL
  • Overcast at 2,600' AGL
Conditions
  • Light Drizzle
Temperature Dewpoint
11°C / 52°F 10°C / 50°F
Humidity Altimeter Pressure
94% 30.24" Hg 1024 hPa